Time;durP1;ratioP1;P1;durP2;ratioP2;P2;SDS_P1;SDS_P2;PMS_P1;PMS_P2;Temp;Humidity;BMP_temperature;BMP_pressure;BME280_temperature;BME280_humidity;BME280_pressure;Samples;Min_cycle;Max_cycle;Signal;HPM_P1;HPM_P2
2022/11/20 00:05:40;;;;;;;49.00;33.30;;;-1.90;99.90;;;;;;2616695;54;20129;-77
2022/11/20 00:18:12;;;;;;;38.43;29.93;;;-2.10;99.90;;;;;;2614946;54;20440;-80
2022/11/20 00:23:59;;;;;;;32.70;26.73;;;-2.20;99.90;;;;;;2615033;54;20154;-79
2022/11/20 00:29:47;;;;;;;35.50;24.97;;;-2.30;99.90;;;;;;2615060;54;20126;-80
2022/11/20 00:35:34;;;;;;;35.90;26.83;;;-2.40;99.90;;;;;;2614786;54;20701;-80
2022/11/20 00:41:31;;;;;;;36.97;24.40;;;-2.50;99.90;;;;;;2614890;39;20498;-79
2022/11/20 00:47:18;;;;;;;36.00;23.73;;;-2.50;99.90;;;;;;2614024;39;20685;-79
2022/11/20 00:53:05;;;;;;;38.90;24.40;;;-2.40;99.90;;;;;;2615136;54;20130;-80
2022/11/20 00:58:52;;;;;;;30.57;23.00;;;-2.40;99.90;;;;;;2614703;54;20122;-80
2022/11/20 01:04:39;;;;;;;30.83;22.53;;;-2.70;99.90;;;;;;2613780;54;20145;-81
2022/11/20 01:10:26;;;;;;;31.70;19.63;;;-2.70;99.90;;;;;;2614711;46;20150;-80
2022/11/20 01:16:19;;;;;;;29.67;22.73;;;-2.80;99.90;;;;;;2613547;54;20151;-80
2022/11/20 01:22:07;;;;;;;28.17;22.63;;;-3.00;99.90;;;;;;2616308;54;20416;-79
2022/11/20 01:27:55;;;;;;;40.60;26.70;;;-2.80;99.90;;;;;;2615682;54;20188;-80
2022/11/20 01:33:44;;;;;;;32.00;23.10;;;-2.90;99.90;;;;;;2615922;54;20490;-80
2022/11/20 01:49:46;;;;;;;34.50;24.30;;;-3.20;99.90;;;;;;2615152;54;20407;-80
2022/11/20 02:01:51;;;;;;;33.57;22.87;;;-3.00;99.90;;;;;;2615372;54;20480;-80
2022/11/20 02:07:39;;;;;;;39.33;23.20;;;-2.80;99.90;;;;;;2615656;54;20474;-79
2022/11/20 02:19:34;;;;;;;33.83;24.40;;;-2.50;99.90;;;;;;2615123;39;20759;-79
2022/11/20 02:25:24;;;;;;;41.33;25.70;;;-2.50;99.90;;;;;;2614768;47;20636;-81
2022/11/20 02:31:12;;;;;;;40.00;25.07;;;-2.40;99.90;;;;;;2615601;54;20423;-78
2022/11/20 02:37:00;;;;;;;36.37;27.17;;;-2.30;99.90;;;;;;2616495;39;20732;-82
2022/11/20 02:42:51;;;;;;;32.97;23.80;;;-2.20;99.90;;;;;;2614251;54;20447;-79
2022/11/20 02:48:38;;;;;;;30.30;21.83;;;-2.30;99.90;;;;;;2614614;47;20411;-80
2022/11/20 02:54:26;;;;;;;35.10;24.27;;;-2.30;99.90;;;;;;2615764;54;20126;-79
2022/11/20 03:00:14;;;;;;;33.30;23.90;;;-2.20;99.90;;;;;;2615523;54;20720;-80
2022/11/20 03:06:03;;;;;;;38.90;23.57;;;-2.00;99.90;;;;;;2614982;54;20399;-79
2022/11/20 03:11:51;;;;;;;38.33;23.87;;;-1.90;99.90;;;;;;2615091;54;20367;-81
2022/11/20 03:17:38;;;;;;;34.63;24.17;;;-1.90;99.90;;;;;;2614988;54;20383;-80
2022/11/20 03:23:28;;;;;;;38.67;25.10;;;-1.70;99.90;;;;;;2614979;54;20126;-79
2022/11/20 03:29:16;;;;;;;37.57;25.00;;;-1.70;99.90;;;;;;2615523;54;20382;-79
2022/11/20 03:35:04;;;;;;;34.63;25.13;;;-1.60;99.90;;;;;;2615026;54;20134;-79
2022/11/20 03:44:32;;;;;;;31.80;22.90;;;-1.40;99.90;;;;;;2615774;54;20539;-80
2022/11/20 03:46:58;;;;;;;30.37;24.43;;;-1.40;99.90;;;;;;2615719;47;20966;-80
2022/11/20 03:52:46;;;;;;;31.10;23.47;;;-1.30;99.90;;;;;;2616407;54;20231;-79
2022/11/20 03:58:35;;;;;;;31.47;23.90;;;-1.30;99.90;;;;;;2614089;54;20130;-80
2022/11/20 04:04:23;;;;;;;32.87;24.93;;;-1.30;99.90;;;;;;2614175;54;20487;-80
2022/11/20 04:10:12;;;;;;;32.50;24.27;;;-1.40;99.90;;;;;;2615342;54;20246;-80
2022/11/20 04:16:00;;;;;;;31.90;22.77;;;-1.30;99.90;;;;;;2614888;54;20487;-80
2022/11/20 04:21:47;;;;;;;34.80;22.40;;;-1.20;99.90;;;;;;2615042;54;20168;-80
2022/11/20 04:27:34;;;;;;;34.03;24.33;;;-1.20;99.90;;;;;;2614526;54;20166;-79
2022/11/20 04:33:21;;;;;;;36.23;23.90;;;-1.10;99.90;;;;;;2614173;54;20166;-80
2022/11/20 04:39:14;;;;;;;34.80;23.40;;;-1.20;99.90;;;;;;2614365;54;20134;-80
2022/11/20 04:45:04;;;;;;;34.70;23.50;;;-1.10;99.90;;;;;;2614368;54;20469;-79
2022/11/20 04:50:51;;;;;;;30.90;22.90;;;-1.10;99.90;;;;;;2614746;54;21123;-80
2022/11/20 04:56:39;;;;;;;29.93;20.90;;;-1.20;99.90;;;;;;2615883;54;20992;-80
2022/11/20 05:02:27;;;;;;;30.30;23.40;;;-1.30;99.90;;;;;;2616057;54;20159;-80
2022/11/20 05:08:14;;;;;;;27.33;20.97;;;-1.30;99.90;;;;;;2616006;54;20386;-79
2022/11/20 05:14:02;;;;;;;31.20;22.73;;;-1.60;99.90;;;;;;2616261;54;20256;-80
2022/11/20 05:19:50;;;;;;;29.77;22.77;;;-1.50;99.90;;;;;;2615860;54;20129;-80
2022/11/20 05:25:38;;;;;;;29.40;21.80;;;-1.50;99.90;;;;;;2615791;54;20150;-80
2022/11/20 05:31:26;;;;;;;31.80;22.17;;;-1.30;99.90;;;;;;2616070;54;20147;-79
2022/11/20 05:37:13;;;;;;;29.83;21.43;;;-1.20;99.90;;;;;;2615742;54;20201;-79
2022/11/20 05:43:02;;;;;;;31.33;22.07;;;-1.10;99.90;;;;;;2615901;54;20186;-81
2022/11/20 05:48:49;;;;;;;31.50;23.63;;;-0.90;99.90;;;;;;2615663;54;20390;-79
2022/11/20 05:54:37;;;;;;;33.07;23.90;;;-0.90;99.90;;;;;;2616030;46;20420;-81
2022/11/20 06:00:25;;;;;;;30.93;22.50;;;-0.90;99.90;;;;;;2615470;54;20165;-80
2022/11/20 06:06:13;;;;;;;28.17;22.43;;;-0.80;99.90;;;;;;2614535;54;20153;-80
2022/11/20 06:12:02;;;;;;;31.07;21.83;;;-0.70;99.90;;;;;;2614614;39;20758;-79
2022/11/20 06:17:53;;;;;;;29.33;22.53;;;-0.80;99.90;;;;;;2614134;54;20382;-80
2022/11/20 06:27:01;;;;;;;36.80;22.53;;;-0.80;99.90;;;;;;2613789;54;20424;-79
2022/11/20 06:32:49;;;;;;;29.73;21.00;;;-0.70;99.90;;;;;;2614463;54;20130;-82
2022/11/20 06:38:36;;;;;;;34.60;22.73;;;-0.80;99.90;;;;;;2614447;54;20138;-79
2022/11/20 06:47:46;;;;;;;27.23;23.23;;;-0.90;99.90;;;;;;2615787;54;20426;-79
2022/11/20 06:53:34;;;;;;;31.03;23.23;;;-1.00;99.90;;;;;;2615413;54;20731;-80
2022/11/20 06:59:22;;;;;;;31.80;24.27;;;-1.20;99.90;;;;;;2615237;54;20403;-81
2022/11/20 07:05:10;;;;;;;31.63;21.40;;;-1.40;99.90;;;;;;2613215;54;20133;-80
2022/11/20 07:11:01;;;;;;;32.53;21.87;;;-1.30;99.90;;;;;;2614597;54;20122;-79
2022/11/20 07:16:49;;;;;;;29.60;20.80;;;-1.50;99.90;;;;;;2618772;54;20390;-80
2022/11/20 07:22:37;;;;;;;35.60;24.20;;;-1.50;99.90;;;;;;2618177;54;20123;-80
2022/11/20 07:28:28;;;;;;;87.20;48.03;;;-1.20;99.90;;;;;;2616742;54;20158;-80
2022/11/20 07:34:15;;;;;;;34.80;25.17;;;-1.20;99.90;;;;;;2616875;54;20415;-80
2022/11/20 07:40:03;;;;;;;60.23;36.73;;;-1.10;99.90;;;;;;2615607;54;20151;-78
2022/11/20 07:43:27;;;;;;;42.60;25.63;;;-1.10;99.90;;;;;;2614025;47;20446;-79
2022/11/20 07:52:20;;;;;;;34.13;24.17;;;-1.00;99.90;;;;;;2615521;54;20377;-79
2022/11/20 07:58:08;;;;;;;42.77;26.73;;;-0.90;99.90;;;;;;2614760;54;20130;-80
2022/11/20 08:03:55;;;;;;;45.87;28.80;;;-0.90;99.90;;;;;;2614850;31;20569;-78
2022/11/20 08:09:51;;;;;;;35.87;25.73;;;-0.40;99.90;;;;;;2613916;39;20649;-78
2022/11/20 08:15:40;;;;;;;34.30;25.63;;;0.60;99.90;;;;;;2614185;54;20430;-79
2022/11/20 08:21:27;;;;;;;32.97;24.20;;;2.80;99.90;;;;;;2615774;54;20423;-78
2022/11/20 08:27:15;;;;;;;38.90;27.00;;;3.70;99.90;;;;;;2615252;54;20150;-78
2022/11/20 08:33:08;;;;;;;34.53;26.00;;;2.20;99.90;;;;;;2615151;54;20130;-80
2022/11/20 08:38:56;;;;;;;34.93;26.13;;;1.30;99.90;;;;;;2615582;54;20384;-79
2022/11/20 08:41:28;;;;;;;35.07;27.97;;;2.00;99.90;;;;;;2616323;31;20863;-79
2022/11/20 08:43:55;;;;;;;31.73;24.70;;;2.00;99.90;;;;;;2614866;46;20539;-79
2022/11/20 08:46:22;;;;;;;29.40;25.20;;;2.00;99.90;;;;;;2614309;46;20399;-79
2022/11/20 08:48:48;;;;;;;33.07;26.20;;;1.90;99.90;;;;;;2615751;54;20935;-80
2022/11/20 08:54:35;;;;;;;31.67;24.60;;;2.30;99.90;;;;;;2616004;39;20652;-77
2022/11/20 09:00:22;;;;;;;32.17;25.63;;;2.90;99.90;;;;;;2615499;54;20216;-81
2022/11/20 09:06:10;;;;;;;31.40;26.80;;;2.30;99.90;;;;;;2615403;54;20648;-80
2022/11/20 09:11:56;;;;;;;36.17;26.17;;;2.00;99.90;;;;;;2616034;39;20630;-81
2022/11/20 09:24:08;;;;;;;34.73;28.17;;;2.20;99.90;;;;;;2615335;54;20944;-80
2022/11/20 09:29:56;;;;;;;34.10;27.57;;;2.40;99.90;;;;;;2617672;39;20539;-79
2022/11/20 09:35:44;;;;;;;31.60;24.90;;;2.80;99.90;;;;;;2617297;54;20122;-80
2022/11/20 09:57:59;;;;;;;34.20;23.53;;;4.10;99.90;;;;;;2615705;54;20487;-78
2022/11/20 10:10:22;;;;;;;33.63;23.83;;;4.30;99.90;;;;;;2614989;54;20358;-78
2022/11/20 10:16:18;;;;;;;28.33;20.00;;;4.50;99.90;;;;;;2615073;54;20367;-78
2022/11/20 10:26:00;;;;;;;26.30;20.43;;;5.50;99.90;;;;;;2615803;54;20433;-78
2022/11/20 10:33:00;;;;;;;22.40;19.53;;;7.30;99.90;;;;;;2614357;54;20374;-78
2022/11/20 10:52:13;;;;;;;17.13;15.43;;;6.10;99.90;;;;;;2613602;54;21101;-77
2022/11/20 11:01:21;;;;;;;15.60;13.87;;;5.40;99.90;;;;;;2616091;46;20921;-78
2022/11/20 11:13:46;;;;;;;14.73;13.23;;;5.40;99.90;;;;;;2615826;54;20379;-78
2022/11/20 11:19:33;;;;;;;14.90;13.30;;;5.10;99.90;;;;;;2616833;54;20667;-78
2022/11/20 11:25:24;;;;;;;20.27;18.10;;;5.10;99.90;;;;;;2616356;54;20174;-79
2022/11/20 11:37:48;;;;;;;27.90;25.10;;;5.50;99.90;;;;;;2615767;54;20395;-79
2022/11/20 11:49:43;;;;;;;18.57;16.63;;;5.50;99.90;;;;;;2615235;39;20836;-77
2022/11/20 11:55:34;;;;;;;21.00;17.90;;;5.60;99.90;;;;;;2615369;39;20614;-78
2022/11/20 12:14:34;;;;;;;21.77;17.60;;;5.50;99.90;;;;;;2615484;54;20366;-79
2022/11/20 12:20:27;;;;;;;21.13;18.30;;;5.30;99.90;;;;;;2615329;54;20412;-77
2022/11/20 12:46:01;;;;;;;21.33;16.67;;;5.00;99.90;;;;;;2615343;54;20509;-79
2022/11/20 13:05:19;;;;;;;22.30;18.20;;;5.10;99.90;;;;;;2615400;54;20423;-79
2022/11/20 13:30:31;;;;;;;22.67;17.90;;;5.20;99.90;;;;;;2614398;54;20374;-79
2022/11/20 13:36:28;;;;;;;20.17;16.30;;;5.10;99.90;;;;;;2616501;54;20383;-80
2022/11/20 13:42:16;;;;;;;22.53;18.60;;;5.10;99.90;;;;;;2616855;54;20424;-78
2022/11/20 13:52:11;;;;;;;21.60;17.07;;;5.10;99.90;;;;;;2614843;54;20418;-79
2022/11/20 13:55:22;;;;;;;22.67;18.47;;;5.20;99.90;;;;;;2615107;46;20422;-78
2022/11/20 14:11:05;;;;;;;25.43;14.90;;;5.10;99.90;;;;;;2614852;54;20371;-79
2022/11/20 14:23:10;;;;;;;22.57;17.00;;;5.00;99.90;;;;;;2614814;54;20981;-78
2022/11/20 14:25:37;;;;;;;24.47;17.83;;;5.00;99.90;;;;;;2614596;54;20487;-78
2022/11/20 14:28:04;;;;;;;23.63;18.47;;;4.90;99.90;;;;;;2614559;39;20755;-78
2022/11/20 14:33:53;;;;;;;25.37;18.93;;;5.00;99.90;;;;;;2614837;54;20354;-78
2022/11/20 14:39:47;;;;;;;24.23;17.60;;;4.80;99.90;;;;;;2612552;54;20937;-78
2022/11/20 14:45:34;;;;;;;27.97;18.10;;;4.70;99.90;;;;;;2613999;54;20414;-79
2022/11/20 14:51:30;;;;;;;27.80;20.13;;;4.60;99.90;;;;;;2612855;54;20122;-77
2022/11/20 14:57:23;;;;;;;23.50;18.53;;;4.60;99.90;;;;;;2611344;54;21086;-78
2022/11/20 15:03:16;;;;;;;29.93;18.10;;;4.50;99.90;;;;;;2611738;54;20406;-77
2022/11/20 15:09:04;;;;;;;25.70;17.60;;;4.40;99.90;;;;;;2613879;54;20370;-79
2022/11/20 15:14:55;;;;;;;29.60;19.07;;;4.50;99.90;;;;;;2612808;54;20366;-78
2022/11/20 15:20:43;;;;;;;28.47;20.17;;;4.50;99.90;;;;;;2613811;54;20395;-77
2022/11/20 15:26:31;;;;;;;36.30;23.37;;;4.40;99.90;;;;;;2611828;54;20499;-76
2022/11/20 15:32:18;;;;;;;31.00;20.07;;;4.30;99.90;;;;;;2612103;54;20418;-77
2022/11/20 15:38:06;;;;;;;28.27;21.30;;;4.20;99.90;;;;;;2610962;39;20740;-76
2022/11/20 15:43:53;;;;;;;33.93;22.13;;;4.10;99.90;;;;;;2612505;54;20354;-77
2022/11/20 15:49:41;;;;;;;34.70;23.70;;;4.20;99.90;;;;;;2612798;54;20663;-76
2022/11/20 15:55:29;;;;;;;46.03;26.43;;;4.20;99.90;;;;;;2614290;54;20134;-76
2022/11/20 16:01:21;;;;;;;51.00;31.03;;;4.20;99.90;;;;;;2614253;54;20398;-77
2022/11/20 16:07:09;;;;;;;40.60;27.03;;;4.20;99.90;;;;;;2615276;54;20946;-76
2022/11/20 16:19:03;;;;;;;39.83;26.83;;;4.20;99.90;;;;;;2615550;54;20430;-76
2022/11/20 16:24:51;;;;;;;33.23;20.77;;;4.10;99.90;;;;;;2614019;54;20549;-77
2022/11/20 16:30:39;;;;;;;31.53;22.03;;;4.10;99.90;;;;;;2613294;54;21013;-76
2022/11/20 16:36:29;;;;;;;32.33;21.63;;;4.10;99.90;;;;;;2610867;54;20573;-77
2022/11/20 16:42:16;;;;;;;33.17;21.40;;;4.10;99.90;;;;;;2612574;54;20968;-76
2022/11/20 16:48:04;;;;;;;34.43;22.70;;;4.10;99.90;;;;;;2612769;54;20247;-76
2022/11/20 16:53:56;;;;;;;35.23;23.17;;;4.20;99.90;;;;;;2612476;54;20123;-76
2022/11/20 17:03:08;;;;;;;36.10;24.90;;;4.10;99.90;;;;;;2611848;54;20964;-76
2022/11/20 17:08:57;;;;;;;42.97;25.97;;;4.10;99.90;;;;;;2607461;54;20411;-76
2022/11/20 17:14:44;;;;;;;39.30;23.50;;;4.20;99.90;;;;;;2611311;54;20386;-76
2022/11/20 17:20:31;;;;;;;37.00;24.07;;;4.30;99.90;;;;;;2612774;54;20271;-76
2022/11/20 17:26:23;;;;;;;42.70;25.80;;;4.30;99.90;;;;;;2610446;54;20179;-76
2022/11/20 17:32:10;;;;;;;40.83;25.17;;;4.50;99.90;;;;;;2612476;39;20536;-76
2022/11/20 17:37:57;;;;;;;37.77;25.50;;;4.60;99.90;;;;;;2612190;54;20126;-75
2022/11/20 17:43:45;;;;;;;42.73;25.90;;;4.70;99.90;;;;;;2612371;54;20363;-77
2022/11/20 17:49:32;;;;;;;39.77;23.40;;;4.80;99.90;;;;;;2613676;54;20362;-76
2022/11/20 17:55:20;;;;;;;36.33;22.90;;;4.90;99.90;;;;;;2613922;54;20141;-80
2022/11/20 18:05:10;;;;;;;33.97;21.40;;;4.90;99.90;;;;;;2616222;46;20467;-81
2022/11/20 18:10:58;;;;;;;27.77;19.63;;;5.00;99.90;;;;;;2614860;46;20446;-78
2022/11/20 18:16:51;;;;;;;24.97;18.63;;;5.00;99.90;;;;;;2615866;54;20129;-80
2022/11/20 18:22:39;;;;;;;27.33;17.47;;;5.00;99.90;;;;;;2616678;54;20394;-79
2022/11/20 18:28:27;;;;;;;27.40;18.57;;;5.10;99.90;;;;;;2615420;54;20122;-77
2022/11/20 18:34:15;;;;;;;26.97;17.50;;;5.10;99.90;;;;;;2615261;54;20493;-77
2022/11/20 18:40:03;;;;;;;21.37;15.50;;;5.20;99.90;;;;;;2615497;54;20379;-79
2022/11/20 18:52:27;;;;;;;14.60;10.40;;;5.30;99.90;;;;;;2614001;54;20399;-78
2022/11/20 18:58:15;;;;;;;16.60;9.70;;;5.40;99.90;;;;;;2616082;54;20391;-78
2022/11/20 19:00:40;;;;;;;10.90;8.67;;;5.40;99.90;;;;;;2616274;54;20511;-77
2022/11/20 19:03:09;;;;;;;16.23;8.77;;;5.50;99.90;;;;;;2615950;54;20731;-79
2022/11/20 19:08:57;;;;;;;10.30;7.20;;;5.60;99.90;;;;;;2615297;54;20472;-79
2022/11/20 19:14:46;;;;;;;12.70;6.43;;;5.70;99.90;;;;;;2617418;54;20134;-79
2022/11/20 19:20:33;;;;;;;9.83;5.87;;;5.70;99.90;;;;;;2617293;54;20957;-79
2022/11/20 19:26:22;;;;;;;10.20;7.73;;;5.80;99.90;;;;;;2618089;54;20422;-79
2022/11/20 19:32:10;;;;;;;13.37;7.90;;;5.90;99.90;;;;;;2617186;54;20479;-79
2022/11/20 19:37:58;;;;;;;10.70;7.47;;;6.00;99.90;;;;;;2617657;54;20573;-80
2022/11/20 19:43:49;;;;;;;10.30;7.80;;;6.10;99.90;;;;;;2616881;54;20660;-77
2022/11/20 19:49:40;;;;;;;10.70;7.47;;;6.20;99.90;;;;;;2615437;54;20929;-79
2022/11/20 19:55:28;;;;;;;13.20;10.70;;;6.30;99.90;;;;;;2617984;54;20422;-75
2022/11/20 20:01:18;;;;;;;13.90;11.13;;;6.40;99.90;;;;;;2616584;54;20177;-77
2022/11/20 20:07:06;;;;;;;16.23;11.63;;;6.60;99.90;;;;;;2616906;39;20778;-76
2022/11/20 20:12:53;;;;;;;12.60;9.70;;;6.80;99.90;;;;;;2616134;54;21041;-76
2022/11/20 20:22:02;;;;;;;14.70;11.20;;;7.10;99.90;;;;;;2616284;39;20769;-77
2022/11/20 20:24:28;;;;;;;19.40;16.37;;;7.20;99.90;;;;;;2616002;46;20403;-76
2022/11/20 20:26:53;;;;;;;27.60;20.50;;;7.30;99.90;;;;;;2616202;46;20186;-77
2022/11/20 20:32:40;;;;;;;28.70;21.63;;;7.30;99.90;;;;;;2616801;54;20143;-76
2022/11/20 20:38:28;;;;;;;32.50;23.07;;;7.20;99.90;;;;;;2617336;54;22080;-76
2022/11/20 20:50:23;;;;;;;35.80;25.73;;;7.30;99.90;;;;;;2614893;39;20631;-76
2022/11/20 20:56:11;;;;;;;35.50;25.87;;;7.20;99.90;;;;;;2614776;54;20709;-75
2022/11/20 21:05:53;;;;;;;32.00;21.37;;;7.00;99.90;;;;;;2613495;39;20792;-76
2022/11/20 21:11:40;;;;;;;31.33;23.63;;;6.90;99.90;;;;;;2614024;54;20393;-77
2022/11/20 21:17:27;;;;;;;33.57;21.10;;;6.80;99.90;;;;;;2613818;54;20259;-75
2022/11/20 21:23:14;;;;;;;30.70;19.67;;;6.70;99.90;;;;;;2613815;54;20173;-76
2022/11/20 21:26:35;;;;;;;33.27;18.67;;;6.60;99.90;;;;;;2614094;54;20509;-76
2022/11/20 21:32:22;;;;;;;36.70;22.90;;;6.50;99.90;;;;;;2615009;54;20420;-76
2022/11/20 21:38:10;;;;;;;30.53;17.93;;;6.30;99.90;;;;;;2613879;54;20150;-76
2022/11/20 21:43:59;;;;;;;35.87;23.20;;;6.20;99.90;;;;;;2615273;54;20122;-76
2022/11/20 21:49:47;;;;;;;39.90;24.60;;;6.00;99.90;;;;;;2616189;54;20387;-75
2022/11/20 21:55:34;;;;;;;32.00;20.27;;;5.90;99.90;;;;;;2614973;54;20125;-76
2022/11/20 22:01:23;;;;;;;42.50;28.40;;;5.70;99.90;;;;;;2613592;54;20122;-75
2022/11/20 22:07:13;;;;;;;40.70;26.57;;;5.50;99.90;;;;;;2613429;46;20381;-77
2022/11/20 22:19:06;;;;;;;47.23;27.87;;;5.00;99.90;;;;;;2614506;54;20459;-78
2022/11/20 22:22:10;;;;;;;52.30;31.00;;;4.90;99.90;;;;;;2616417;54;20462;-80
2022/11/20 22:24:38;;;;;;;45.47;26.63;;;4.90;99.90;;;;;;2616622;39;20852;-79
2022/11/20 22:30:26;;;;;;;42.63;27.80;;;4.90;99.90;;;;;;2616085;54;20574;-80
2022/11/20 22:42:46;;;;;;;39.87;26.13;;;4.70;99.90;;;;;;2615933;39;20447;-80
2022/11/20 22:48:35;;;;;;;41.33;25.67;;;4.60;99.90;;;;;;2615331;54;20435;-77
2022/11/20 22:54:22;;;;;;;43.53;25.13;;;4.50;99.90;;;;;;2615768;54;20418;-79
2022/11/20 23:00:11;;;;;;;39.80;24.77;;;4.40;99.90;;;;;;2616288;54;20655;-79
2022/11/20 23:05:59;;;;;;;36.83;21.80;;;4.30;99.90;;;;;;2615409;54;20420;-79
2022/11/20 23:11:47;;;;;;;44.90;23.60;;;4.20;99.90;;;;;;2616145;54;20390;-79
2022/11/20 23:17:34;;;;;;;34.13;20.20;;;4.20;99.90;;;;;;2615743;54;20129;-79
2022/11/20 23:23:23;;;;;;;28.97;19.40;;;4.10;99.90;;;;;;2616091;54;20139;-79
2022/11/20 23:29:10;;;;;;;39.93;23.83;;;4.00;99.90;;;;;;2616200;54;20371;-77
2022/11/20 23:34:58;;;;;;;42.13;24.17;;;4.00;99.90;;;;;;2616096;54;20142;-79
2022/11/20 23:40:48;;;;;;;38.77;23.03;;;3.90;99.90;;;;;;2615635;54;20134;-81
2022/11/20 23:46:36;;;;;;;36.03;22.40;;;3.80;99.90;;;;;;2615632;39;20661;-79
2022/11/20 23:52:27;;;;;;;32.90;23.80;;;3.80;99.90;;;;;;2616448;54;20423;-81
2022/11/20 23:58:15;;;;;;;39.90;22.93;;;3.80;99.90;;;;;;2616652;39;20768;-78
